createdAt,value
2023-08-07T00:03:56.819Z,2.00
2023-08-07T00:09:00.258Z,1.00
2023-08-07T00:14:06.134Z,1.23
2023-08-07T00:19:09.605Z,0.90
2023-08-07T00:24:12.992Z,1.48
2023-08-07T00:29:17.807Z,1.00
2023-08-07T00:34:21.394Z,0.60
2023-08-07T00:39:24.811Z,1.27
2023-08-07T00:44:29.996Z,0.80
2023-08-07T00:49:33.623Z,1.17
2023-08-07T00:54:37.179Z,0.20
2023-08-07T00:59:42.674Z,0.37
2023-08-07T01:04:46.627Z,0.20
2023-08-07T01:09:50.033Z,0.20
2023-08-07T01:15:00.814Z,0.33
2023-08-07T01:20:05.795Z,0.65
2023-08-07T01:25:10.930Z,0.40
2023-08-07T01:30:24.472Z,0.28
2023-08-07T01:35:31.874Z,0.50
2023-08-07T01:40:39.813Z,0.35
2023-08-07T01:45:43.452Z,0.40
2023-08-07T01:50:47.358Z,0.30
2023-08-07T01:55:55.101Z,0.50
2023-08-07T02:00:58.835Z,0.20
2023-08-07T02:06:03.173Z,0.10
2023-08-07T02:11:08.118Z,0.70
2023-08-07T02:16:11.600Z,0.60
2023-08-07T02:21:15.541Z,0.57
2023-08-07T02:26:20.487Z,0.70
2023-08-07T02:31:24.042Z,0.50
2023-08-07T02:36:27.571Z,0.65
2023-08-07T02:41:32.864Z,0.30
2023-08-07T02:46:38.246Z,0.40
2023-08-07T02:51:41.764Z,0.52
2023-08-07T02:56:46.767Z,0.30
2023-08-07T03:01:50.523Z,0.40
2023-08-07T03:06:54.684Z,0.68
2023-08-07T03:12:04.376Z,0.10
2023-08-07T03:17:08.786Z,0.47
2023-08-07T03:22:12.459Z,2.13
2023-08-07T03:27:17.755Z,0.50
2023-08-07T03:32:21.274Z,0.60
2023-08-07T03:37:25.371Z,0.32
2023-08-07T03:42:30.125Z,0.75
2023-08-07T03:47:33.892Z,0.20
2023-08-07T03:52:37.667Z,0.47
2023-08-07T03:57:42.488Z,1.70
2023-08-07T04:02:46.132Z,0.57
2023-08-07T04:07:51.412Z,0.85
2023-08-07T04:12:56.163Z,1.03
2023-08-07T04:17:59.690Z,1.13
2023-08-07T04:23:03.723Z,0.50
2023-08-07T04:28:08.489Z,1.48
2023-08-07T04:33:11.959Z,1.23
2023-08-07T04:38:15.336Z,2.30
2023-08-07T04:43:21.887Z,1.80
2023-08-07T04:48:26.852Z,1.00
2023-08-07T04:53:30.402Z,0.52
2023-08-07T04:58:35.173Z,0.13
2023-08-07T05:03:38.675Z,1.80
2023-08-07T05:08:42.351Z,0.25
2023-08-07T05:13:47.142Z,0.40
2023-08-07T05:18:51.239Z,0.00
2023-08-07T05:23:56.465Z,0.10
2023-08-07T05:29:01.284Z,0.27
2023-08-07T05:34:05.006Z,0.70
2023-08-07T05:39:08.426Z,0.40
2023-08-07T05:44:13.264Z,0.13
2023-08-07T05:49:16.657Z,0.10
2023-08-07T05:54:20.224Z,0.28
2023-08-07T05:59:25.046Z,0.30
2023-08-07T06:04:28.517Z,0.50
2023-08-07T06:09:31.894Z,0.85
2023-08-07T06:14:36.653Z,0.20
2023-08-07T06:19:40.027Z,0.30
2023-08-07T06:24:43.394Z,0.40
2023-08-07T06:29:48.429Z,0.10
2023-08-07T06:34:51.812Z,0.60
2023-08-07T06:39:55.170Z,0.50
2023-08-07T06:45:00.036Z,1.40
2023-08-07T06:50:03.420Z,0.40
2023-08-07T06:55:08.169Z,0.38
2023-08-07T07:00:14.490Z,0.28
2023-08-07T07:05:20.692Z,0.50
2023-08-07T07:10:24.341Z,0.30
2023-08-07T07:15:29.098Z,0.68
2023-08-07T07:20:32.446Z,2.50
2023-08-07T07:25:35.974Z,0.13
2023-08-07T07:30:41.712Z,0.47
2023-08-07T07:35:45.271Z,0.80
2023-08-07T07:40:48.674Z,1.27
2023-08-07T07:45:53.586Z,0.35
2023-08-07T07:51:01.651Z,0.43
2023-08-07T07:56:05.260Z,1.98
2023-08-07T08:01:10.573Z,0.60
2023-08-07T08:06:14.644Z,0.45
2023-08-07T08:11:18.984Z,1.33
2023-08-07T08:16:23.761Z,1.30
2023-08-07T08:21:27.246Z,2.33
2023-08-07T08:26:30.785Z,2.20
2023-08-07T08:31:35.684Z,2.80
2023-08-07T08:36:39.067Z,1.40
2023-08-07T08:41:43.881Z,1.73
2023-08-07T08:46:54.990Z,3.22
2023-08-07T08:52:00.020Z,0.88
2023-08-07T08:57:04.222Z,1.88
2023-08-07T09:02:09.469Z,3.88
2023-08-07T09:07:15.461Z,1.92
2023-08-07T09:12:22.447Z,3.60
2023-08-07T09:17:31.567Z,1.47
2023-08-07T09:22:35.004Z,2.85
2023-08-07T09:27:39.312Z,2.10
2023-08-07T09:32:44.073Z,4.05
2023-08-07T09:37:47.784Z,1.10
2023-08-07T09:42:54.457Z,1.90
2023-08-07T09:48:03.037Z,1.53
2023-08-07T09:53:06.867Z,3.00
2023-08-07T09:58:14.586Z,3.70
2023-08-07T10:03:19.499Z,3.93
2023-08-07T10:08:24.232Z,1.85
2023-08-07T10:13:38.615Z,2.87
2023-08-07T10:18:44.695Z,3.55
2023-08-07T10:23:50.238Z,3.20
2023-08-07T10:28:55.373Z,3.13
2023-08-07T10:34:00.859Z,4.63
2023-08-07T10:39:11.557Z,1.80
2023-08-07T10:44:22.032Z,2.42
2023-08-07T10:49:38.418Z,3.92
2023-08-07T10:54:44.248Z,4.28
2023-08-07T10:59:51.914Z,4.30
2023-08-07T11:04:56.783Z,1.67
2023-08-07T11:10:01.308Z,2.78
2023-08-07T11:15:04.993Z,2.23
2023-08-07T11:20:12.306Z,2.10
2023-08-07T11:25:16.797Z,1.53
2023-08-07T11:30:20.535Z,1.97
2023-08-07T11:35:25.473Z,2.22
2023-08-07T11:40:28.885Z,2.33
2023-08-07T11:45:32.388Z,3.30
2023-08-07T11:50:37.255Z,2.00
2023-08-07T11:55:49.353Z,1.58
2023-08-07T12:00:53.010Z,2.20
2023-08-07T12:05:59.259Z,1.70
2023-08-07T12:11:05.351Z,0.95
2023-08-07T12:16:09.658Z,0.43
2023-08-07T12:21:17.513Z,1.00
2023-08-07T12:26:20.934Z,1.45
2023-08-07T12:31:24.471Z,0.70
2023-08-07T12:36:29.245Z,0.82
2023-08-07T12:46:40.255Z,2.15
2023-08-07T12:51:45.116Z,1.55
2023-08-07T12:56:48.869Z,1.43
2023-08-07T13:01:54.367Z,1.20
2023-08-07T13:06:59.480Z,0.68
2023-08-07T13:12:03.121Z,0.93
2023-08-07T13:17:07.121Z,0.90
2023-08-07T13:22:11.898Z,1.30
2023-08-07T13:27:15.341Z,1.23
2023-08-07T13:32:20.027Z,1.77
2023-08-07T13:37:24.752Z,1.58
2023-08-07T13:42:28.824Z,1.60
2023-08-07T13:47:32.265Z,1.33
2023-08-07T13:52:37.126Z,1.17
2023-08-07T13:57:40.616Z,1.85
2023-08-07T14:02:44.150Z,1.60
2023-08-07T14:07:48.993Z,0.95
2023-08-07T14:12:52.392Z,3.00
2023-08-07T14:17:55.783Z,1.27
2023-08-07T14:28:23.971Z,1.83
2023-08-07T14:33:27.338Z,1.13
2023-08-07T14:38:32.282Z,0.80
2023-08-07T14:43:35.742Z,1.05
2023-08-07T14:48:39.306Z,2.50
2023-08-07T14:53:44.173Z,1.70
2023-08-07T14:58:47.636Z,1.20
2023-08-07T15:03:51.120Z,2.30
2023-08-07T15:08:55.911Z,1.30
2023-08-07T15:13:59.307Z,3.65
2023-08-07T15:19:02.842Z,2.92
2023-08-07T15:24:07.912Z,1.85
2023-08-07T15:29:11.338Z,1.03
2023-08-07T15:34:14.699Z,2.10
2023-08-07T15:39:19.731Z,1.70
2023-08-07T15:44:23.104Z,1.90
2023-08-07T15:49:27.227Z,0.85
2023-08-07T15:54:32.117Z,1.02
2023-08-07T15:59:35.849Z,1.70
2023-08-07T16:04:39.559Z,1.27
2023-08-07T16:09:44.522Z,2.30
2023-08-07T16:14:49.168Z,1.93
2023-08-07T16:19:52.528Z,3.13
2023-08-07T16:24:57.281Z,1.48
2023-08-07T16:30:04.952Z,1.23
2023-08-07T16:35:10.928Z,2.30
2023-08-07T16:40:15.764Z,1.00
2023-08-07T16:45:20.961Z,4.40
2023-08-07T16:50:25.020Z,2.00
2023-08-07T16:55:30.039Z,1.98
2023-08-07T17:00:36.216Z,1.30
2023-08-07T17:05:39.879Z,5.70
2023-08-07T17:10:44.841Z,6.27
2023-08-07T17:15:48.836Z,3.22
2023-08-07T17:20:52.625Z,2.27
2023-08-07T17:25:58.861Z,1.88
2023-08-07T17:31:03.024Z,1.83
2023-08-07T17:36:07.782Z,2.30
2023-08-07T17:41:13.942Z,2.00
2023-08-07T17:46:17.531Z,2.77
2023-08-07T17:51:22.291Z,2.05
2023-08-07T17:56:27.237Z,1.17
2023-08-07T18:01:31.130Z,1.25
2023-08-07T18:06:34.724Z,1.33
2023-08-07T18:11:39.753Z,2.70
2023-08-07T18:16:43.372Z,1.90
2023-08-07T18:21:47.772Z,1.88
2023-08-07T18:26:52.775Z,1.98
2023-08-07T18:31:56.366Z,1.85
2023-08-07T18:37:00.336Z,2.10
2023-08-07T18:42:06.164Z,1.88
2023-08-07T18:47:09.885Z,2.25
2023-08-07T18:52:13.944Z,2.75
2023-08-07T18:57:19.116Z,2.88
2023-08-07T19:02:22.601Z,3.03
2023-08-07T19:07:26.297Z,1.63
2023-08-07T19:12:31.181Z,2.05
2023-08-07T19:17:35.848Z,1.80
2023-08-07T19:22:39.821Z,2.40
2023-08-07T19:27:44.893Z,5.87
2023-08-07T19:32:48.398Z,2.40
2023-08-07T19:37:51.927Z,2.13
2023-08-07T19:42:57.233Z,2.50
2023-08-07T19:48:01.212Z,2.07
2023-08-07T19:53:05.050Z,2.63
2023-08-07T19:58:10.307Z,2.10
2023-08-07T20:03:15.072Z,1.43
2023-08-07T20:08:18.765Z,2.15
2023-08-07T20:13:24.106Z,3.70
2023-08-07T20:18:27.571Z,4.30
2023-08-07T20:23:31.119Z,2.75
2023-08-07T20:28:36.231Z,2.57
2023-08-07T20:33:40.100Z,3.13
2023-08-07T20:38:43.803Z,3.42
2023-08-07T20:43:49.780Z,2.88
2023-08-07T20:48:53.577Z,3.05
2023-08-07T20:53:57.100Z,2.22
2023-08-07T20:59:02.496Z,2.70
2023-08-07T21:04:06.305Z,3.20
2023-08-07T21:09:09.972Z,2.95
2023-08-07T21:14:14.924Z,1.92
2023-08-07T21:19:18.519Z,2.40
2023-08-07T21:24:22.107Z,2.72
2023-08-07T21:29:27.146Z,5.45
2023-08-07T21:34:30.638Z,2.55
2023-08-07T21:39:34.177Z,3.75
2023-08-07T21:44:39.283Z,2.50
2023-08-07T21:49:43.014Z,1.83
2023-08-07T21:54:46.563Z,3.27
2023-08-07T21:59:51.588Z,2.40
2023-08-07T22:04:55.273Z,2.27
2023-08-07T22:09:59.028Z,2.92
2023-08-07T22:15:05.956Z,2.72
2023-08-07T22:20:11.977Z,1.90
2023-08-07T22:25:15.699Z,2.03
2023-08-07T22:30:21.860Z,2.95
2023-08-07T22:35:25.821Z,2.73
2023-08-07T22:40:29.656Z,2.45
2023-08-07T22:45:34.666Z,2.80
2023-08-07T22:50:38.302Z,2.57
2023-08-07T22:55:42.258Z,2.85
2023-08-07T23:00:47.325Z,3.50
2023-08-07T23:05:51.272Z,3.00
2023-08-07T23:10:54.878Z,3.10
2023-08-07T23:16:00.042Z,3.40
2023-08-07T23:21:03.689Z,4.65
2023-08-07T23:26:07.390Z,3.92
2023-08-07T23:31:12.785Z,5.07
2023-08-07T23:36:16.521Z,2.70
2023-08-07T23:41:20.296Z,2.47
2023-08-07T23:46:25.718Z,2.40
2023-08-07T23:51:29.268Z,12.13
2023-08-07T23:56:33.926Z,8.05
